Tufão JONGDARI 2018: trajetória, intensidade e histórico
4/08/2018, 21:00:00
23/07/2018, 00:00:00 – 4/08/2018, 21:00:00
Trajetória histórica
Acompanhe a evolução e o deslocamento de Tufão JONGDARI em 2018, com a trajetória completa registrada, ventos máximos sustentados de 90 nós, pressão central mínima e cronologia detalhada.
| Data | Hora | Tipo | Ventokm/h | PressãohPa |
|---|---|---|---|---|
| 04/08 | 21:00 | TDDepressão tropical | 35 | 1002 |
| 04/08 | 18:00 | TDDepressão tropical | 35 | 1002 |
| 04/08 | 15:00 | TDDepressão tropical | 35 | 1002 |
| 04/08 | 12:00 | TDDepressão tropical | 35 | 1002 |
| 04/08 | 09:00 | DBPerturbação tropical | 35 | 1000 |
| 04/08 | 06:00 | TDDepressão tropical | 30 | 998 |
| 04/08 | 03:00 | DBPerturbação tropical | 35 | 998 |
| 04/08 | 00:00 | TDDepressão tropical | 35 | 998 |
| 03/08 | 21:00 | DBPerturbação tropical | 35 | 998 |
| 03/08 | 18:00 | TDDepressão tropical | 35 | 998 |
| 03/08 | 15:00 | DBPerturbação tropical | 35 | 998 |
| 03/08 | 12:00 | TDDepressão tropical | 35 | 998 |
| 03/08 | 09:00 | TDDepressão tropical | 45 | 997 |
| 03/08 | 06:00 | TDDepressão tropical | 45 | 995 |
| 03/08 | 03:00 | TDDepressão tropical | 45 | 995 |
| 03/08 | 00:00 | TDDepressão tropical | 45 | 995 |
| 02/08 | 21:00 | TDDepressão tropical | 50 | 994 |
| 02/08 | 18:00 | TSTempestade tropical | 55 | 993 |
| 02/08 | 15:00 | TDDepressão tropical | 55 | 993 |
| 02/08 | 12:00 | TSTempestade tropical | 55 | 993 |
| 02/08 | 09:00 | TSTempestade tropical | 60 | 992 |
| 02/08 | 06:00 | TSTempestade tropical | 65 | 990 |
| 02/08 | 03:00 | TDDepressão tropical | 60 | 992 |
| 02/08 | 00:00 | TSTempestade tropical | 55 | 993 |
| 01/08 | 21:00 | TDDepressão tropical | 55 | 994 |
| 01/08 | 18:00 | TSTempestade tropical | 55 | 995 |
| 01/08 | 15:00 | TDDepressão tropical | 55 | 995 |
| 01/08 | 12:00 | TSTempestade tropical | 55 | 995 |
| 01/08 | 09:00 | TDDepressão tropical | 55 | 996 |
| 01/08 | 06:00 | TSTempestade tropical | 55 | 996 |
| 01/08 | 03:00 | TDDepressão tropical | 55 | 996 |
| 01/08 | 00:00 | TSTempestade tropical | 55 | 996 |
| 31/07 | 21:00 | TSTempestade tropical | 60 | 995 |
| 31/07 | 18:00 | TSTempestade tropical | 65 | 993 |
| 31/07 | 15:00 | TSTempestade tropical | 65 | 993 |
| 31/07 | 12:00 | TSTempestade tropical | 65 | 993 |
| 31/07 | 09:00 | TSTempestade tropical | 65 | 993 |
| 31/07 | 06:00 | TSTempestade tropical | 65 | 993 |
| 31/07 | 03:00 | TSTempestade tropical | 65 | 993 |
| 31/07 | 00:00 | TSTempestade tropical | 65 | 993 |
| 30/07 | 21:00 | TDDepressão tropical | 60 | 994 |
| 30/07 | 18:00 | TDDepressão tropical | 55 | 995 |
| 30/07 | 15:00 | TDDepressão tropical | 55 | 995 |
| 30/07 | 12:00 | TDDepressão tropical | 55 | 995 |
| 30/07 | 09:00 | TDDepressão tropical | 55 | 995 |
| 30/07 | 06:00 | TSTempestade tropical | 55 | 995 |
| 30/07 | 03:00 | TDDepressão tropical | 55 | 995 |
| 30/07 | 00:00 | TSTempestade tropical | 55 | 995 |
| 29/07 | 21:00 | TDDepressão tropical | 55 | 995 |
| 29/07 | 18:00 | TSTempestade tropical | 55 | 995 |
| 29/07 | 15:00 | TDDepressão tropical | 55 | 995 |
| 29/07 | 14:00 | TSTempestade tropical | 55 | 995 |
| 29/07 | 12:00 | TSTempestade tropical | 55 | 995 |
| 29/07 | 09:00 | TSTempestade tropical | 60 | 994 |
| 29/07 | 08:00 | TSTempestade tropical | 60 | 993 |
| 29/07 | 06:00 | TSTempestade tropical | 65 | 992 |
| 29/07 | 03:00 | TSTempestade tropical | 75 | 991 |
| 29/07 | 00:00 | TSTempestade tropical | 85 | 990 |
| 28/07 | 21:00 | STSTempestade tropical severa | 100 | 982 |
| 28/07 | 18:00 | STSTempestade tropical severa | 110 | 973 |
| 28/07 | 16:00 | TTufão | 115 | 971 |
| 28/07 | 15:00 | TTufão | 120 | 970 |
| 28/07 | 12:00 | TTufão | 130 | 966 |
| 28/07 | 09:00 | TTufão | 140 | 963 |
| 28/07 | 06:00 | TTufão | 150 | 960 |
| 28/07 | 03:00 | TTufão | 155 | 958 |
| 28/07 | 00:00 | TTufão | 155 | 955 |
| 27/07 | 21:00 | TTufão | 165 | 953 |
| 27/07 | 18:00 | TTufão | 165 | 950 |
| 27/07 | 15:00 | TTufão | 165 | 951 |
| 27/07 | 12:00 | TTufão | 165 | 952 |
| 27/07 | 09:00 | TTufão | 165 | 952 |
| 27/07 | 06:00 | TTufão | 165 | 952 |
| 27/07 | 03:00 | TTufão | 165 | 955 |
| 27/07 | 00:00 | TTufão | 155 | 958 |
| 26/07 | 21:00 | TTufão | 150 | 963 |
| 26/07 | 18:00 | TTufão | 140 | 967 |
| 26/07 | 15:00 | TTufão | 130 | 972 |
| 26/07 | 12:00 | STSTempestade tropical severa | 120 | 976 |
| 26/07 | 09:00 | TSTempestade tropical | 115 | 979 |
| 26/07 | 06:00 | STSTempestade tropical severa | 110 | 981 |
| 26/07 | 03:00 | TSTempestade tropical | 105 | 984 |
| 26/07 | 00:00 | STSTempestade tropical severa | 100 | 986 |
| 25/07 | 21:00 | TSTempestade tropical | 100 | 986 |
| 25/07 | 18:00 | STSTempestade tropical severa | 100 | 986 |
| 25/07 | 15:00 | TSTempestade tropical | 95 | 990 |
| 25/07 | 12:00 | STSTempestade tropical severa | 85 | 993 |
| 25/07 | 09:00 | TSTempestade tropical | 80 | 995 |
| 25/07 | 06:00 | TSTempestade tropical | 75 | 996 |
| 25/07 | 03:00 | TSTempestade tropical | 75 | 997 |
| 25/07 | 00:00 | TSTempestade tropical | 75 | 997 |
| 24/07 | 21:00 | TSTempestade tropical | 80 | 996 |
| 24/07 | 18:00 | TSTempestade tropical | 85 | 994 |
| 24/07 | 15:00 | TSTempestade tropical | 80 | 995 |
| 24/07 | 12:00 | TSTempestade tropical | 75 | 996 |
| 24/07 | 09:00 | TSTempestade tropical | 70 | 997 |
| 24/07 | 06:00 | TDDepressão tropical | 65 | 998 |
| 24/07 | 03:00 | TDDepressão tropical | 60 | 999 |
| 24/07 | 00:00 | TDDepressão tropical | 55 | 1000 |
| 23/07 | 21:00 | TDDepressão tropical | 50 | 1002 |
| 23/07 | 18:00 | TDDepressão tropical | 45 | 1004 |
| 23/07 | 15:00 | RBaixa remanescente | 45 | 1006 |
| 23/07 | 12:00 | RBaixa remanescente | 35 | 1007 |
| 23/07 | 09:00 | RBaixa remanescente | 35 | 1007 |
| 23/07 | 06:00 | RBaixa remanescente | 35 | 1007 |
| 23/07 | 03:00 | RBaixa remanescente | 35 | 1009 |
| 23/07 | 00:00 | RBaixa remanescente | 30 | 1010 |
Cronologia de localização
107 Registos de localizaçãoTambém pode encontrar estas ferramentas úteis
A localização, a extensão e o estado de cada evento podem ser atualizados em momentos diferentes consoante a fonte. Confirme decisões importantes junto das autoridades oficiais de emergência.
Os registos de eventos provêm da NASA EONET e são complementados por registos de deslizamentos de terra do USGS FDSN. As análises e previsões de tempestades podem utilizar a NOAA NHC ou o JTWC, com registos históricos ATCF da UCAR/NCAR quando disponíveis. As imagens de satélite provêm da NASA Worldview/GIBS (GOES e Himawari) ou da EUMETSAT Meteosat, consoante a cobertura do mapa.
Fontes: NASA EONET · USGS · NOAA NHC · JTWC · UCAR/NCAR ATCF · NASA Worldview/GIBS · EUMETSAT Meteosat · OpenStreetMap contributors